sensor_id;sensor_type;location;lat;lon;timestamp;temperature;humidity
39401;DHT22;54391;50.000;7.360;2023-11-19T00:01:29;8.50;99.90
39401;DHT22;54391;50.000;7.360;2023-11-19T00:03:56;8.70;99.90
39401;DHT22;54391;50.000;7.360;2023-11-19T00:06:24;8.50;99.90
39401;DHT22;54391;50.000;7.360;2023-11-19T00:08:51;8.70;99.90
39401;DHT22;54391;50.000;7.360;2023-11-19T00:11:18;8.50;99.90
39401;DHT22;54391;50.000;7.360;2023-11-19T00:13:46;8.70;99.90
39401;DHT22;54391;50.000;7.360;2023-11-19T00:16:13;8.70;99.90
39401;DHT22;54391;50.000;7.360;2023-11-19T00:18:43;8.70;99.90
39401;DHT22;54391;50.000;7.360;2023-11-19T00:21:11;8.60;99.90
39401;DHT22;54391;50.000;7.360;2023-11-19T00:23:38;8.50;99.90
39401;DHT22;54391;50.000;7.360;2023-11-19T00:26:05;8.60;99.90
39401;DHT22;54391;50.000;7.360;2023-11-19T00:28:33;8.80;99.90
39401;DHT22;54391;50.000;7.360;2023-11-19T00:31:00;8.80;99.90
39401;DHT22;54391;50.000;7.360;2023-11-19T00:33:29;8.80;99.90
39401;DHT22;54391;50.000;7.360;2023-11-19T00:35:58;8.80;99.90
39401;DHT22;54391;50.000;7.360;2023-11-19T00:38:25;8.90;99.90
39401;DHT22;54391;50.000;7.360;2023-11-19T00:40:52;8.80;99.90
39401;DHT22;54391;50.000;7.360;2023-11-19T00:43:20;8.80;99.90
39401;DHT22;54391;50.000;7.360;2023-11-19T00:45:48;8.80;99.90
39401;DHT22;54391;50.000;7.360;2023-11-19T00:48:16;8.80;99.90
39401;DHT22;54391;50.000;7.360;2023-11-19T00:50:44;8.60;99.90
39401;DHT22;54391;50.000;7.360;2023-11-19T00:53:13;8.90;99.90
39401;DHT22;54391;50.000;7.360;2023-11-19T00:55:41;8.70;99.90
39401;DHT22;54391;50.000;7.360;2023-11-19T00:58:08;8.90;99.90
39401;DHT22;54391;50.000;7.360;2023-11-19T01:00:35;8.90;99.90
39401;DHT22;54391;50.000;7.360;2023-11-19T01:03:02;8.90;99.90
39401;DHT22;54391;50.000;7.360;2023-11-19T01:05:30;8.90;99.90
39401;DHT22;54391;50.000;7.360;2023-11-19T01:07:57;8.90;99.90
39401;DHT22;54391;50.000;7.360;2023-11-19T01:10:25;8.90;99.90
39401;DHT22;54391;50.000;7.360;2023-11-19T01:13:25;9.00;99.90
39401;DHT22;54391;50.000;7.360;2023-11-19T01:15:53;9.00;99.90
39401;DHT22;54391;50.000;7.360;2023-11-19T01:22:09;9.00;99.90
39401;DHT22;54391;50.000;7.360;2023-11-19T01:24:36;9.00;99.90
39401;DHT22;54391;50.000;7.360;2023-11-19T01:27:05;9.10;99.90
39401;DHT22;54391;50.000;7.360;2023-11-19T01:29:32;8.90;99.90
39401;DHT22;54391;50.000;7.360;2023-11-19T01:32:00;9.20;99.90
39401;DHT22;54391;50.000;7.360;2023-11-19T01:34:27;9.10;99.90
39401;DHT22;54391;50.000;7.360;2023-11-19T01:36:54;9.10;99.90
39401;DHT22;54391;50.000;7.360;2023-11-19T01:39:22;9.10;99.90
39401;DHT22;54391;50.000;7.360;2023-11-19T01:41:49;8.90;99.90
39401;DHT22;54391;50.000;7.360;2023-11-19T01:46:46;8.90;99.90
39401;DHT22;54391;50.000;7.360;2023-11-19T01:49:15;9.00;99.90
39401;DHT22;54391;50.000;7.360;2023-11-19T01:54:53;9.20;99.90
39401;DHT22;54391;50.000;7.360;2023-11-19T01:57:22;9.20;99.90
39401;DHT22;54391;50.000;7.360;2023-11-19T01:59:51;9.20;99.90
39401;DHT22;54391;50.000;7.360;2023-11-19T02:02:19;9.10;99.90
39401;DHT22;54391;50.000;7.360;2023-11-19T02:04:49;9.10;99.90
39401;DHT22;54391;50.000;7.360;2023-11-19T02:07:16;9.10;99.90
39401;DHT22;54391;50.000;7.360;2023-11-19T02:09:44;9.10;99.90
39401;DHT22;54391;50.000;7.360;2023-11-19T02:12:11;9.30;99.90
39401;DHT22;54391;50.000;7.360;2023-11-19T02:14:39;9.30;99.90
39401;DHT22;54391;50.000;7.360;2023-11-19T02:17:25;9.30;99.90
39401;DHT22;54391;50.000;7.360;2023-11-19T02:19:53;9.40;99.90
39401;DHT22;54391;50.000;7.360;2023-11-19T02:22:20;9.30;99.90
39401;DHT22;54391;50.000;7.360;2023-11-19T02:24:51;9.20;99.90
39401;DHT22;54391;50.000;7.360;2023-11-19T02:27:24;9.40;99.90
39401;DHT22;54391;50.000;7.360;2023-11-19T02:29:56;9.20;99.90
39401;DHT22;54391;50.000;7.360;2023-11-19T02:32:27;9.20;99.90
39401;DHT22;54391;50.000;7.360;2023-11-19T02:34:54;9.40;99.90
39401;DHT22;54391;50.000;7.360;2023-11-19T02:37:30;9.40;99.90
39401;DHT22;54391;50.000;7.360;2023-11-19T02:39:57;9.30;99.90
39401;DHT22;54391;50.000;7.360;2023-11-19T02:42:28;9.50;99.90
39401;DHT22;54391;50.000;7.360;2023-11-19T02:44:57;9.30;99.90
39401;DHT22;54391;50.000;7.360;2023-11-19T02:47:25;9.40;99.90
39401;DHT22;54391;50.000;7.360;2023-11-19T02:49:53;9.50;99.90
39401;DHT22;54391;50.000;7.360;2023-11-19T02:52:21;9.50;99.90
39401;DHT22;54391;50.000;7.360;2023-11-19T02:54:48;9.40;99.90
39401;DHT22;54391;50.000;7.360;2023-11-19T02:57:43;9.40;99.90
39401;DHT22;54391;50.000;7.360;2023-11-19T03:00:39;9.40;99.90
39401;DHT22;54391;50.000;7.360;2023-11-19T03:06:57;9.60;99.90
39401;DHT22;54391;50.000;7.360;2023-11-19T03:09:49;9.60;99.90
39401;DHT22;54391;50.000;7.360;2023-11-19T03:12:16;9.60;99.90
39401;DHT22;54391;50.000;7.360;2023-11-19T03:14:43;9.50;99.90
39401;DHT22;54391;50.000;7.360;2023-11-19T03:17:15;9.60;99.90
39401;DHT22;54391;50.000;7.360;2023-11-19T03:19:42;9.70;99.90
39401;DHT22;54391;50.000;7.360;2023-11-19T03:22:09;9.70;99.90
39401;DHT22;54391;50.000;7.360;2023-11-19T03:24:37;9.50;99.90
39401;DHT22;54391;50.000;7.360;2023-11-19T03:27:05;9.70;99.90
39401;DHT22;54391;50.000;7.360;2023-11-19T03:29:32;9.80;99.90
39401;DHT22;54391;50.000;7.360;2023-11-19T03:31:59;9.70;99.90
39401;DHT22;54391;50.000;7.360;2023-11-19T03:34:28;9.80;99.90
39401;DHT22;54391;50.000;7.360;2023-11-19T03:36:55;9.90;99.90
39401;DHT22;54391;50.000;7.360;2023-11-19T03:39:22;9.80;99.90
39401;DHT22;54391;50.000;7.360;2023-11-19T03:41:51;9.70;99.90
39401;DHT22;54391;50.000;7.360;2023-11-19T03:44:18;9.90;99.90
39401;DHT22;54391;50.000;7.360;2023-11-19T03:46:47;9.90;99.90
39401;DHT22;54391;50.000;7.360;2023-11-19T03:49:14;9.80;99.90
39401;DHT22;54391;50.000;7.360;2023-11-19T03:51:43;10.00;99.90
39401;DHT22;54391;50.000;7.360;2023-11-19T03:54:10;9.80;99.90
39401;DHT22;54391;50.000;7.360;2023-11-19T03:56:37;10.00;99.90
39401;DHT22;54391;50.000;7.360;2023-11-19T03:59:05;10.00;99.90
39401;DHT22;54391;50.000;7.360;2023-11-19T04:01:32;10.00;99.90
39401;DHT22;54391;50.000;7.360;2023-11-19T04:04:00;10.00;99.90
39401;DHT22;54391;50.000;7.360;2023-11-19T04:06:27;10.10;99.90
39401;DHT22;54391;50.000;7.360;2023-11-19T04:08:56;10.10;99.90
39401;DHT22;54391;50.000;7.360;2023-11-19T04:11:23;10.00;99.90
39401;DHT22;54391;50.000;7.360;2023-11-19T04:13:50;10.20;99.90
39401;DHT22;54391;50.000;7.360;2023-11-19T04:16:18;10.20;99.90
39401;DHT22;54391;50.000;7.360;2023-11-19T04:18:46;10.00;99.90
39401;DHT22;54391;50.000;7.360;2023-11-19T04:21:13;10.20;99.90
39401;DHT22;54391;50.000;7.360;2023-11-19T04:23:40;10.20;99.90
39401;DHT22;54391;50.000;7.360;2023-11-19T04:26:10;10.30;99.90
39401;DHT22;54391;50.000;7.360;2023-11-19T04:28:37;10.20;99.90
39401;DHT22;54391;50.000;7.360;2023-11-19T04:34:18;10.10;99.90
39401;DHT22;54391;50.000;7.360;2023-11-19T04:36:46;10.30;99.90
39401;DHT22;54391;50.000;7.360;2023-11-19T04:39:13;10.20;99.90
39401;DHT22;54391;50.000;7.360;2023-11-19T04:41:49;10.30;99.90
39401;DHT22;54391;50.000;7.360;2023-11-19T04:44:18;10.40;99.90
39401;DHT22;54391;50.000;7.360;2023-11-19T04:49:16;10.20;99.90
39401;DHT22;54391;50.000;7.360;2023-11-19T04:54:13;10.30;99.90
39401;DHT22;54391;50.000;7.360;2023-11-19T04:56:45;10.50;99.90
39401;DHT22;54391;50.000;7.360;2023-11-19T04:59:14;10.40;99.90
39401;DHT22;54391;50.000;7.360;2023-11-19T05:01:41;10.40;99.90
39401;DHT22;54391;50.000;7.360;2023-11-19T05:04:13;10.50;99.90
39401;DHT22;54391;50.000;7.360;2023-11-19T05:30:06;10.70;99.90
39401;DHT22;54391;50.000;7.360;2023-11-19T05:32:43;10.60;99.90
39401;DHT22;54391;50.000;7.360;2023-11-19T05:35:11;10.40;99.90
39401;DHT22;54391;50.000;7.360;2023-11-19T05:37:39;10.40;99.90
39401;DHT22;54391;50.000;7.360;2023-11-19T05:40:07;10.40;99.90
39401;DHT22;54391;50.000;7.360;2023-11-19T05:42:40;10.60;99.90
39401;DHT22;54391;50.000;7.360;2023-11-19T05:45:09;10.50;99.90
39401;DHT22;54391;50.000;7.360;2023-11-19T05:47:37;10.60;99.90
39401;DHT22;54391;50.000;7.360;2023-11-19T05:50:07;10.40;99.90
39401;DHT22;54391;50.000;7.360;2023-11-19T05:56:22;10.60;99.90
39401;DHT22;54391;50.000;7.360;2023-11-19T05:58:49;10.60;99.90
39401;DHT22;54391;50.000;7.360;2023-11-19T06:01:43;10.60;99.90
39401;DHT22;54391;50.000;7.360;2023-11-19T06:04:11;10.30;99.90
39401;DHT22;54391;50.000;7.360;2023-11-19T06:07:17;10.40;99.90
39401;DHT22;54391;50.000;7.360;2023-11-19T06:09:47;10.60;99.90
39401;DHT22;54391;50.000;7.360;2023-11-19T06:12:14;10.50;99.90
39401;DHT22;54391;50.000;7.360;2023-11-19T06:14:41;10.50;99.90
39401;DHT22;54391;50.000;7.360;2023-11-19T06:17:08;10.50;99.90
39401;DHT22;54391;50.000;7.360;2023-11-19T06:22:56;10.60;99.90
39401;DHT22;54391;50.000;7.360;2023-11-19T06:25:45;10.60;99.90
39401;DHT22;54391;50.000;7.360;2023-11-19T06:28:12;10.50;99.90
39401;DHT22;54391;50.000;7.360;2023-11-19T06:30:40;10.60;99.90
39401;DHT22;54391;50.000;7.360;2023-11-19T06:33:07;10.50;99.90
39401;DHT22;54391;50.000;7.360;2023-11-19T06:35:34;10.30;99.90
39401;DHT22;54391;50.000;7.360;2023-11-19T06:38:04;10.50;99.90
39401;DHT22;54391;50.000;7.360;2023-11-19T06:40:32;10.40;99.90
39401;DHT22;54391;50.000;7.360;2023-11-19T06:43:00;10.40;99.90
39401;DHT22;54391;50.000;7.360;2023-11-19T06:45:29;10.40;99.90
39401;DHT22;54391;50.000;7.360;2023-11-19T06:47:56;10.50;99.90
39401;DHT22;54391;50.000;7.360;2023-11-19T06:50:24;10.50;99.90
39401;DHT22;54391;50.000;7.360;2023-11-19T06:52:51;10.40;99.90
39401;DHT22;54391;50.000;7.360;2023-11-19T06:55:20;10.50;99.90
39401;DHT22;54391;50.000;7.360;2023-11-19T06:57:48;10.50;99.90
39401;DHT22;54391;50.000;7.360;2023-11-19T07:00:16;10.70;99.90
39401;DHT22;54391;50.000;7.360;2023-11-19T07:02:44;10.50;99.90
39401;DHT22;54391;50.000;7.360;2023-11-19T07:05:11;10.40;99.90
39401;DHT22;54391;50.000;7.360;2023-11-19T07:07:39;10.40;99.90
39401;DHT22;54391;50.000;7.360;2023-11-19T07:10:07;10.50;99.90
39401;DHT22;54391;50.000;7.360;2023-11-19T07:21:01;10.60;99.90
39401;DHT22;54391;50.000;7.360;2023-11-19T07:27:16;10.50;99.90
39401;DHT22;54391;50.000;7.360;2023-11-19T07:29:45;10.70;99.90
39401;DHT22;54391;50.000;7.360;2023-11-19T07:36:12;10.40;99.90
39401;DHT22;54391;50.000;7.360;2023-11-19T07:38:40;10.60;99.90
39401;DHT22;54391;50.000;7.360;2023-11-19T07:41:07;10.60;99.90
39401;DHT22;54391;50.000;7.360;2023-11-19T07:43:39;10.60;99.90
39401;DHT22;54391;50.000;7.360;2023-11-19T07:46:12;10.60;99.90
39401;DHT22;54391;50.000;7.360;2023-11-19T07:48:39;11.00;99.90
39401;DHT22;54391;50.000;7.360;2023-11-19T07:51:32;11.00;99.90
39401;DHT22;54391;50.000;7.360;2023-11-19T07:54:00;11.10;99.90
39401;DHT22;54391;50.000;7.360;2023-11-19T07:56:27;11.00;99.90
39401;DHT22;54391;50.000;7.360;2023-11-19T07:58:54;11.20;99.90
39401;DHT22;54391;50.000;7.360;2023-11-19T08:01:23;11.10;99.90
39401;DHT22;54391;50.000;7.360;2023-11-19T08:03:50;11.40;99.90
39401;DHT22;54391;50.000;7.360;2023-11-19T08:06:17;11.30;99.90
39401;DHT22;54391;50.000;7.360;2023-11-19T08:08:45;11.20;99.90
39401;DHT22;54391;50.000;7.360;2023-11-19T08:11:13;11.20;99.90
39401;DHT22;54391;50.000;7.360;2023-11-19T08:13:41;11.30;99.90
39401;DHT22;54391;50.000;7.360;2023-11-19T08:16:09;11.10;99.90
39401;DHT22;54391;50.000;7.360;2023-11-19T08:18:40;11.00;99.90
39401;DHT22;54391;50.000;7.360;2023-11-19T08:21:08;10.90;99.90
39401;DHT22;54391;50.000;7.360;2023-11-19T08:23:36;10.90;99.90
39401;DHT22;54391;50.000;7.360;2023-11-19T08:33:39;10.60;99.90
39401;DHT22;54391;50.000;7.360;2023-11-19T08:36:08;10.80;99.90
39401;DHT22;54391;50.000;7.360;2023-11-19T08:38:35;11.10;99.90
39401;DHT22;54391;50.000;7.360;2023-11-19T08:41:02;11.00;99.90
39401;DHT22;54391;50.000;7.360;2023-11-19T08:43:30;11.00;99.90
39401;DHT22;54391;50.000;7.360;2023-11-19T08:45:57;11.40;99.90
39401;DHT22;54391;50.000;7.360;2023-11-19T08:48:24;11.60;99.90
39401;DHT22;54391;50.000;7.360;2023-11-19T08:50:53;11.80;99.90
39401;DHT22;54391;50.000;7.360;2023-11-19T08:53:21;11.50;99.90
